sensor_id;sensor_type;location;lat;lon;timestamp;P1;durP1;ratioP1;P2;durP2;ratioP2
12871;SDS011;6504;53.766;9.626;2023-04-29T00:01:15;10.50;;;9.50;;
12871;SDS011;6504;53.766;9.626;2023-04-29T00:03:44;13.33;;;10.20;;
12871;SDS011;6504;53.766;9.626;2023-04-29T00:06:12;10.87;;;9.70;;
12871;SDS011;6504;53.766;9.626;2023-04-29T00:08:41;10.40;;;9.37;;
12871;SDS011;6504;53.766;9.626;2023-04-29T00:11:09;10.60;;;9.50;;
12871;SDS011;6504;53.766;9.626;2023-04-29T00:13:37;11.47;;;9.57;;
12871;SDS011;6504;53.766;9.626;2023-04-29T00:16:06;11.17;;;8.97;;
12871;SDS011;6504;53.766;9.626;2023-04-29T00:18:35;11.40;;;8.97;;
12871;SDS011;6504;53.766;9.626;2023-04-29T00:21:05;10.40;;;9.43;;
12871;SDS011;6504;53.766;9.626;2023-04-29T00:23:33;10.70;;;9.20;;
12871;SDS011;6504;53.766;9.626;2023-04-29T00:26:01;11.00;;;9.90;;
12871;SDS011;6504;53.766;9.626;2023-04-29T00:28:29;10.10;;;9.00;;
12871;SDS011;6504;53.766;9.626;2023-04-29T00:30:57;9.83;;;8.87;;
12871;SDS011;6504;53.766;9.626;2023-04-29T00:33:25;10.30;;;9.23;;
12871;SDS011;6504;53.766;9.626;2023-04-29T00:35:53;11.50;;;8.87;;
12871;SDS011;6504;53.766;9.626;2023-04-29T00:38:23;10.97;;;9.87;;
12871;SDS011;6504;53.766;9.626;2023-04-29T00:40:51;10.03;;;9.03;;
12871;SDS011;6504;53.766;9.626;2023-04-29T00:43:19;11.17;;;9.33;;
12871;SDS011;6504;53.766;9.626;2023-04-29T00:45:48;9.77;;;8.87;;
12871;SDS011;6504;53.766;9.626;2023-04-29T00:48:16;9.93;;;8.87;;
12871;SDS011;6504;53.766;9.626;2023-04-29T00:50:44;9.63;;;8.67;;
12871;SDS011;6504;53.766;9.626;2023-04-29T00:53:12;12.83;;;9.77;;
12871;SDS011;6504;53.766;9.626;2023-04-29T00:55:42;11.37;;;8.93;;
12871;SDS011;6504;53.766;9.626;2023-04-29T00:58:11;11.90;;;9.50;;
12871;SDS011;6504;53.766;9.626;2023-04-29T01:00:39;12.13;;;8.83;;
12871;SDS011;6504;53.766;9.626;2023-04-29T01:03:09;11.37;;;9.40;;
12871;SDS011;6504;53.766;9.626;2023-04-29T01:05:37;10.73;;;9.63;;
12871;SDS011;6504;53.766;9.626;2023-04-29T01:08:10;10.53;;;9.17;;
12871;SDS011;6504;53.766;9.626;2023-04-29T01:10:48;10.37;;;8.70;;
12871;SDS011;6504;53.766;9.626;2023-04-29T01:13:23;10.37;;;9.27;;
12871;SDS011;6504;53.766;9.626;2023-04-29T01:15:58;10.07;;;9.03;;
12871;SDS011;6504;53.766;9.626;2023-04-29T01:18:31;10.37;;;9.33;;
12871;SDS011;6504;53.766;9.626;2023-04-29T01:21:02;10.37;;;9.37;;
12871;SDS011;6504;53.766;9.626;2023-04-29T01:23:31;11.87;;;9.40;;
12871;SDS011;6504;53.766;9.626;2023-04-29T01:25:59;10.43;;;9.33;;
12871;SDS011;6504;53.766;9.626;2023-04-29T01:28:36;11.10;;;9.83;;
12871;SDS011;6504;53.766;9.626;2023-04-29T01:31:10;9.60;;;8.60;;
12871;SDS011;6504;53.766;9.626;2023-04-29T01:33:46;10.80;;;9.77;;
12871;SDS011;6504;53.766;9.626;2023-04-29T01:36:23;10.87;;;9.50;;
12871;SDS011;6504;53.766;9.626;2023-04-29T01:39:02;10.80;;;9.43;;
12871;SDS011;6504;53.766;9.626;2023-04-29T01:41:39;11.90;;;9.73;;
12871;SDS011;6504;53.766;9.626;2023-04-29T01:44:12;10.07;;;9.17;;
12871;SDS011;6504;53.766;9.626;2023-04-29T01:46:43;10.50;;;9.30;;
12871;SDS011;6504;53.766;9.626;2023-04-29T01:49:18;11.17;;;8.97;;
12871;SDS011;6504;53.766;9.626;2023-04-29T01:51:47;11.13;;;10.03;;
12871;SDS011;6504;53.766;9.626;2023-04-29T01:54:16;10.03;;;9.00;;
12871;SDS011;6504;53.766;9.626;2023-04-29T01:56:44;13.07;;;10.23;;
12871;SDS011;6504;53.766;9.626;2023-04-29T01:59:12;10.40;;;9.40;;
12871;SDS011;6504;53.766;9.626;2023-04-29T02:01:40;11.60;;;10.40;;
12871;SDS011;6504;53.766;9.626;2023-04-29T02:04:09;11.73;;;10.47;;
12871;SDS011;6504;53.766;9.626;2023-04-29T02:06:37;11.87;;;10.60;;
12871;SDS011;6504;53.766;9.626;2023-04-29T02:09:05;11.00;;;9.90;;
12871;SDS011;6504;53.766;9.626;2023-04-29T02:11:34;11.60;;;10.43;;
12871;SDS011;6504;53.766;9.626;2023-04-29T02:14:02;13.30;;;10.60;;
12871;SDS011;6504;53.766;9.626;2023-04-29T02:16:30;12.13;;;10.93;;
12871;SDS011;6504;53.766;9.626;2023-04-29T02:18:58;10.87;;;9.83;;
12871;SDS011;6504;53.766;9.626;2023-04-29T02:21:26;11.07;;;9.97;;
12871;SDS011;6504;53.766;9.626;2023-04-29T02:23:54;11.13;;;9.80;;
12871;SDS011;6504;53.766;9.626;2023-04-29T02:26:22;11.60;;;10.40;;
12871;SDS011;6504;53.766;9.626;2023-04-29T02:28:52;11.73;;;10.60;;
12871;SDS011;6504;53.766;9.626;2023-04-29T02:31:22;11.23;;;10.13;;
12871;SDS011;6504;53.766;9.626;2023-04-29T02:33:50;11.50;;;9.73;;
12871;SDS011;6504;53.766;9.626;2023-04-29T02:36:19;11.30;;;10.30;;
12871;SDS011;6504;53.766;9.626;2023-04-29T02:38:47;12.47;;;10.87;;
12871;SDS011;6504;53.766;9.626;2023-04-29T02:41:16;11.50;;;10.30;;
12871;SDS011;6504;53.766;9.626;2023-04-29T02:43:44;11.80;;;10.60;;
12871;SDS011;6504;53.766;9.626;2023-04-29T02:46:15;11.23;;;10.13;;
12871;SDS011;6504;53.766;9.626;2023-04-29T02:48:44;12.23;;;11.03;;
12871;SDS011;6504;53.766;9.626;2023-04-29T02:51:12;11.00;;;9.90;;
12871;SDS011;6504;53.766;9.626;2023-04-29T02:53:40;12.53;;;11.37;;
12871;SDS011;6504;53.766;9.626;2023-04-29T02:56:09;11.67;;;10.53;;
12871;SDS011;6504;53.766;9.626;2023-04-29T02:58:37;12.73;;;11.53;;
12871;SDS011;6504;53.766;9.626;2023-04-29T03:01:05;11.10;;;10.00;;
12871;SDS011;6504;53.766;9.626;2023-04-29T03:03:34;12.30;;;11.07;;
12871;SDS011;6504;53.766;9.626;2023-04-29T03:06:03;10.57;;;9.57;;
12871;SDS011;6504;53.766;9.626;2023-04-29T03:08:31;11.63;;;10.53;;
12871;SDS011;6504;53.766;9.626;2023-04-29T03:10:59;11.23;;;9.90;;
12871;SDS011;6504;53.766;9.626;2023-04-29T03:13:27;11.70;;;10.50;;
12871;SDS011;6504;53.766;9.626;2023-04-29T03:15:55;11.17;;;10.17;;
12871;SDS011;6504;53.766;9.626;2023-04-29T03:18:25;11.90;;;10.30;;
12871;SDS011;6504;53.766;9.626;2023-04-29T03:20:55;10.93;;;9.93;;
12871;SDS011;6504;53.766;9.626;2023-04-29T03:23:23;11.37;;;10.27;;
12871;SDS011;6504;53.766;9.626;2023-04-29T03:25:52;12.27;;;10.70;;
12871;SDS011;6504;53.766;9.626;2023-04-29T03:28:21;11.47;;;10.27;;
12871;SDS011;6504;53.766;9.626;2023-04-29T03:30:49;11.90;;;10.70;;
12871;SDS011;6504;53.766;9.626;2023-04-29T03:33:17;11.07;;;10.03;;
12871;SDS011;6504;53.766;9.626;2023-04-29T03:35:45;12.50;;;11.23;;
12871;SDS011;6504;53.766;9.626;2023-04-29T03:38:14;11.90;;;10.70;;
12871;SDS011;6504;53.766;9.626;2023-04-29T03:40:42;11.53;;;10.43;;
12871;SDS011;6504;53.766;9.626;2023-04-29T03:43:11;11.33;;;10.27;;
12871;SDS011;6504;53.766;9.626;2023-04-29T03:45:40;12.30;;;11.00;;
12871;SDS011;6504;53.766;9.626;2023-04-29T03:48:08;11.43;;;10.37;;
12871;SDS011;6504;53.766;9.626;2023-04-29T03:50:37;11.53;;;10.43;;
12871;SDS011;6504;53.766;9.626;2023-04-29T03:53:05;12.43;;;11.20;;
12871;SDS011;6504;53.766;9.626;2023-04-29T03:55:35;11.83;;;10.60;;
12871;SDS011;6504;53.766;9.626;2023-04-29T03:58:03;12.17;;;10.40;;
12871;SDS011;6504;53.766;9.626;2023-04-29T04:00:31;11.93;;;10.73;;
12871;SDS011;6504;53.766;9.626;2023-04-29T04:02:59;12.43;;;10.90;;
12871;SDS011;6504;53.766;9.626;2023-04-29T04:05:31;11.57;;;10.47;;
12871;SDS011;6504;53.766;9.626;2023-04-29T04:07:59;12.97;;;11.20;;
12871;SDS011;6504;53.766;9.626;2023-04-29T04:10:27;11.73;;;10.40;;
12871;SDS011;6504;53.766;9.626;2023-04-29T04:12:56;14.37;;;11.77;;
12871;SDS011;6504;53.766;9.626;2023-04-29T04:15:24;11.67;;;10.50;;
12871;SDS011;6504;53.766;9.626;2023-04-29T04:17:52;12.27;;;11.07;;
12871;SDS011;6504;53.766;9.626;2023-04-29T04:20:20;12.00;;;10.80;;
12871;SDS011;6504;53.766;9.626;2023-04-29T04:22:48;11.83;;;10.63;;
12871;SDS011;6504;53.766;9.626;2023-04-29T04:25:16;12.27;;;11.03;;
12871;SDS011;6504;53.766;9.626;2023-04-29T04:27:44;12.47;;;11.07;;
12871;SDS011;6504;53.766;9.626;2023-04-29T04:30:14;12.37;;;10.80;;
12871;SDS011;6504;53.766;9.626;2023-04-29T04:32:42;12.50;;;11.20;;
12871;SDS011;6504;53.766;9.626;2023-04-29T04:35:10;12.33;;;11.13;;
12871;SDS011;6504;53.766;9.626;2023-04-29T04:37:38;11.93;;;10.60;;
12871;SDS011;6504;53.766;9.626;2023-04-29T04:40:07;11.97;;;10.73;;
12871;SDS011;6504;53.766;9.626;2023-04-29T04:42:37;11.10;;;10.00;;
12871;SDS011;6504;53.766;9.626;2023-04-29T04:45:05;12.17;;;10.97;;
12871;SDS011;6504;53.766;9.626;2023-04-29T04:47:36;12.80;;;10.43;;
12871;SDS011;6504;53.766;9.626;2023-04-29T04:50:07;13.17;;;11.77;;
12871;SDS011;6504;53.766;9.626;2023-04-29T04:52:35;12.47;;;11.17;;
12871;SDS011;6504;53.766;9.626;2023-04-29T04:55:03;11.70;;;10.50;;
12871;SDS011;6504;53.766;9.626;2023-04-29T04:57:31;14.33;;;11.67;;
12871;SDS011;6504;53.766;9.626;2023-04-29T04:59:59;13.40;;;11.93;;
12871;SDS011;6504;53.766;9.626;2023-04-29T05:02:29;13.70;;;11.93;;
12871;SDS011;6504;53.766;9.626;2023-04-29T05:04:59;12.80;;;11.43;;
12871;SDS011;6504;53.766;9.626;2023-04-29T05:07:27;15.13;;;12.33;;
12871;SDS011;6504;53.766;9.626;2023-04-29T05:09:55;16.00;;;13.27;;
12871;SDS011;6504;53.766;9.626;2023-04-29T05:12:23;13.20;;;11.80;;
12871;SDS011;6504;53.766;9.626;2023-04-29T05:14:55;16.40;;;12.53;;
12871;SDS011;6504;53.766;9.626;2023-04-29T05:17:23;13.87;;;12.37;;
12871;SDS011;6504;53.766;9.626;2023-04-29T05:19:52;13.10;;;11.57;;
12871;SDS011;6504;53.766;9.626;2023-04-29T05:22:21;14.50;;;12.27;;
12871;SDS011;6504;53.766;9.626;2023-04-29T05:24:49;13.80;;;12.27;;
12871;SDS011;6504;53.766;9.626;2023-04-29T05:27:18;17.03;;;12.70;;
12871;SDS011;6504;53.766;9.626;2023-04-29T05:29:46;15.07;;;13.57;;
12871;SDS011;6504;53.766;9.626;2023-04-29T05:32:14;14.13;;;12.37;;
12871;SDS011;6504;53.766;9.626;2023-04-29T05:34:43;15.53;;;13.67;;
12871;SDS011;6504;53.766;9.626;2023-04-29T05:37:11;16.13;;;13.10;;
12871;SDS011;6504;53.766;9.626;2023-04-29T05:39:41;16.23;;;13.83;;
12871;SDS011;6504;53.766;9.626;2023-04-29T05:42:09;14.53;;;12.77;;
12871;SDS011;6504;53.766;9.626;2023-04-29T05:44:37;14.50;;;12.30;;
12871;SDS011;6504;53.766;9.626;2023-04-29T05:47:06;14.67;;;12.90;;
12871;SDS011;6504;53.766;9.626;2023-04-29T05:49:34;14.97;;;12.93;;
12871;SDS011;6504;53.766;9.626;2023-04-29T05:52:02;16.33;;;13.07;;
12871;SDS011;6504;53.766;9.626;2023-04-29T05:54:31;14.27;;;12.27;;
12871;SDS011;6504;53.766;9.626;2023-04-29T05:57:01;15.47;;;13.10;;
12871;SDS011;6504;53.766;9.626;2023-04-29T05:59:29;15.83;;;12.67;;
12871;SDS011;6504;53.766;9.626;2023-04-29T06:01:58;15.17;;;12.73;;
12871;SDS011;6504;53.766;9.626;2023-04-29T06:04:26;16.20;;;12.57;;
12871;SDS011;6504;53.766;9.626;2023-04-29T06:06:55;14.33;;;12.63;;
12871;SDS011;6504;53.766;9.626;2023-04-29T06:09:23;17.17;;;12.33;;
12871;SDS011;6504;53.766;9.626;2023-04-29T06:11:53;16.03;;;12.77;;
12871;SDS011;6504;53.766;9.626;2023-04-29T06:14:23;15.63;;;12.23;;
12871;SDS011;6504;53.766;9.626;2023-04-29T06:16:51;14.63;;;11.10;;
12871;SDS011;6504;53.766;9.626;2023-04-29T06:19:19;14.87;;;10.97;;
12871;SDS011;6504;53.766;9.626;2023-04-29T06:21:47;13.73;;;10.80;;
12871;SDS011;6504;53.766;9.626;2023-04-29T06:24:15;13.47;;;10.70;;
12871;SDS011;6504;53.766;9.626;2023-04-29T06:26:43;15.67;;;11.37;;
12871;SDS011;6504;53.766;9.626;2023-04-29T06:29:12;10.83;;;9.53;;
12871;SDS011;6504;53.766;9.626;2023-04-29T06:31:41;13.23;;;11.10;;
12871;SDS011;6504;53.766;9.626;2023-04-29T06:34:09;13.87;;;10.50;;
12871;SDS011;6504;53.766;9.626;2023-04-29T06:36:37;12.17;;;10.47;;
12871;SDS011;6504;53.766;9.626;2023-04-29T06:39:06;13.53;;;10.63;;
12871;SDS011;6504;53.766;9.626;2023-04-29T06:41:34;11.70;;;10.50;;
12871;SDS011;6504;53.766;9.626;2023-04-29T06:44:03;10.30;;;9.17;;
12871;SDS011;6504;53.766;9.626;2023-04-29T06:46:31;12.83;;;9.60;;
12871;SDS011;6504;53.766;9.626;2023-04-29T06:49:00;12.93;;;10.10;;
12871;SDS011;6504;53.766;9.626;2023-04-29T06:51:28;10.60;;;9.50;;
12871;SDS011;6504;53.766;9.626;2023-04-29T06:53:57;13.03;;;9.70;;
12871;SDS011;6504;53.766;9.626;2023-04-29T06:56:25;10.23;;;8.90;;
12871;SDS011;6504;53.766;9.626;2023-04-29T06:58:53;13.00;;;10.10;;
12871;SDS011;6504;53.766;9.626;2023-04-29T07:01:21;12.03;;;10.37;;
12871;SDS011;6504;53.766;9.626;2023-04-29T07:03:49;10.93;;;9.30;;
12871;SDS011;6504;53.766;9.626;2023-04-29T07:06:19;12.50;;;9.83;;
12871;SDS011;6504;53.766;9.626;2023-04-29T07:08:47;11.90;;;9.33;;
12871;SDS011;6504;53.766;9.626;2023-04-29T07:11:15;11.90;;;9.63;;
12871;SDS011;6504;53.766;9.626;2023-04-29T07:13:43;10.77;;;9.30;;
12871;SDS011;6504;53.766;9.626;2023-04-29T07:16:14;14.17;;;10.10;;
12871;SDS011;6504;53.766;9.626;2023-04-29T07:18:43;11.77;;;9.70;;
12871;SDS011;6504;53.766;9.626;2023-04-29T07:21:11;11.90;;;9.37;;
12871;SDS011;6504;53.766;9.626;2023-04-29T07:23:41;11.97;;;9.67;;
12871;SDS011;6504;53.766;9.626;2023-04-29T07:26:09;10.20;;;9.00;;
12871;SDS011;6504;53.766;9.626;2023-04-29T07:28:38;11.90;;;9.70;;
12871;SDS011;6504;53.766;9.626;2023-04-29T07:31:07;11.23;;;9.20;;
12871;SDS011;6504;53.766;9.626;2023-04-29T07:33:36;10.67;;;9.53;;
12871;SDS011;6504;53.766;9.626;2023-04-29T07:36:04;11.30;;;9.43;;
12871;SDS011;6504;53.766;9.626;2023-04-29T07:38:33;10.27;;;9.10;;
12871;SDS011;6504;53.766;9.626;2023-04-29T07:41:03;10.60;;;9.50;;
12871;SDS011;6504;53.766;9.626;2023-04-29T07:43:31;11.40;;;9.43;;
12871;SDS011;6504;53.766;9.626;2023-04-29T07:45:59;11.30;;;9.43;;
12871;SDS011;6504;53.766;9.626;2023-04-29T07:48:27;10.83;;;9.83;;
12871;SDS011;6504;53.766;9.626;2023-04-29T07:50:55;10.30;;;9.40;;
12871;SDS011;6504;53.766;9.626;2023-04-29T07:53:23;14.20;;;9.13;;
12871;SDS011;6504;53.766;9.626;2023-04-29T07:55:51;10.23;;;9.10;;
12871;SDS011;6504;53.766;9.626;2023-04-29T07:58:21;9.63;;;8.73;;
12871;SDS011;6504;53.766;9.626;2023-04-29T08:00:49;9.97;;;8.90;;
12871;SDS011;6504;53.766;9.626;2023-04-29T08:03:17;10.60;;;9.53;;
12871;SDS011;6504;53.766;9.626;2023-04-29T08:05:45;12.10;;;9.37;;
12871;SDS011;6504;53.766;9.626;2023-04-29T08:08:14;12.33;;;9.50;;
12871;SDS011;6504;53.766;9.626;2023-04-29T08:10:42;9.83;;;8.53;;
12871;SDS011;6504;53.766;9.626;2023-04-29T08:13:10;10.20;;;9.07;;
12871;SDS011;6504;53.766;9.626;2023-04-29T08:15:39;10.53;;;9.43;;
12871;SDS011;6504;53.766;9.626;2023-04-29T08:18:07;9.30;;;8.40;;
12871;SDS011;6504;53.766;9.626;2023-04-29T08:20:35;10.20;;;9.20;;
12871;SDS011;6504;53.766;9.626;2023-04-29T08:23:03;9.17;;;8.23;;
12871;SDS011;6504;53.766;9.626;2023-04-29T08:25:31;9.27;;;8.00;;
12871;SDS011;6504;53.766;9.626;2023-04-29T08:27:59;9.13;;;8.23;;
12871;SDS011;6504;53.766;9.626;2023-04-29T08:30:28;10.87;;;8.60;;
12871;SDS011;6504;53.766;9.626;2023-04-29T08:32:57;9.40;;;8.27;;
12871;SDS011;6504;53.766;9.626;2023-04-29T08:35:25;9.63;;;8.50;;
12871;SDS011;6504;53.766;9.626;2023-04-29T08:37:53;11.03;;;8.23;;
12871;SDS011;6504;53.766;9.626;2023-04-29T08:40:21;8.87;;;7.90;;
12871;SDS011;6504;53.766;9.626;2023-04-29T08:42:51;9.50;;;8.20;;
12871;SDS011;6504;53.766;9.626;2023-04-29T08:45:20;10.97;;;8.57;;
12871;SDS011;6504;53.766;9.626;2023-04-29T08:47:51;8.67;;;7.83;;
12871;SDS011;6504;53.766;9.626;2023-04-29T08:50:21;8.77;;;7.87;;
12871;SDS011;6504;53.766;9.626;2023-04-29T08:52:50;10.33;;;8.43;;
12871;SDS011;6504;53.766;9.626;2023-04-29T08:55:19;10.67;;;8.30;;
12871;SDS011;6504;53.766;9.626;2023-04-29T08:57:47;9.73;;;8.47;;
12871;SDS011;6504;53.766;9.626;2023-04-29T09:00:18;9.60;;;8.70;;
12871;SDS011;6504;53.766;9.626;2023-04-29T09:02:48;10.87;;;8.90;;
12871;SDS011;6504;53.766;9.626;2023-04-29T09:05:17;9.63;;;8.53;;
12871;SDS011;6504;53.766;9.626;2023-04-29T09:07:47;9.23;;;8.33;;
12871;SDS011;6504;53.766;9.626;2023-04-29T09:10:17;9.03;;;8.03;;
12871;SDS011;6504;53.766;9.626;2023-04-29T09:12:45;9.00;;;8.07;;
12871;SDS011;6504;53.766;9.626;2023-04-29T09:15:13;8.83;;;7.93;;
12871;SDS011;6504;53.766;9.626;2023-04-29T09:17:42;8.93;;;8.03;;
12871;SDS011;6504;53.766;9.626;2023-04-29T09:20:26;10.53;;;8.80;;
12871;SDS011;6504;53.766;9.626;2023-04-29T09:22:58;9.67;;;8.70;;
12871;SDS011;6504;53.766;9.626;2023-04-29T09:25:28;10.27;;;8.73;;
12871;SDS011;6504;53.766;9.626;2023-04-29T09:27:56;10.33;;;9.33;;
12871;SDS011;6504;53.766;9.626;2023-04-29T09:30:24;10.50;;;8.77;;
12871;SDS011;6504;53.766;9.626;2023-04-29T09:33:02;10.10;;;8.93;;
12871;SDS011;6504;53.766;9.626;2023-04-29T09:35:32;10.30;;;9.23;;
12871;SDS011;6504;53.766;9.626;2023-04-29T09:38:09;9.73;;;8.80;;
12871;SDS011;6504;53.766;9.626;2023-04-29T09:40:38;10.03;;;8.70;;
12871;SDS011;6504;53.766;9.626;2023-04-29T09:43:23;9.90;;;8.90;;
12871;SDS011;6504;53.766;9.626;2023-04-29T09:45:51;10.73;;;9.63;;
12871;SDS011;6504;53.766;9.626;2023-04-29T09:48:19;10.60;;;9.50;;
12871;SDS011;6504;53.766;9.626;2023-04-29T09:50:57;10.73;;;8.57;;
12871;SDS011;6504;53.766;9.626;2023-04-29T09:53:29;9.73;;;8.83;;
12871;SDS011;6504;53.766;9.626;2023-04-29T09:55:58;10.00;;;9.07;;
12871;SDS011;6504;53.766;9.626;2023-04-29T09:58:28;9.63;;;8.17;;
12871;SDS011;6504;53.766;9.626;2023-04-29T10:00:59;9.07;;;8.07;;
12871;SDS011;6504;53.766;9.626;2023-04-29T10:03:30;11.43;;;8.87;;
12871;SDS011;6504;53.766;9.626;2023-04-29T10:06:00;9.47;;;8.43;;
12871;SDS011;6504;53.766;9.626;2023-04-29T10:08:30;9.80;;;8.83;;
12871;SDS011;6504;53.766;9.626;2023-04-29T10:11:00;9.00;;;8.07;;
12871;SDS011;6504;53.766;9.626;2023-04-29T10:13:29;9.87;;;8.23;;
12871;SDS011;6504;53.766;9.626;2023-04-29T10:15:59;9.43;;;8.43;;
12871;SDS011;6504;53.766;9.626;2023-04-29T10:18:34;9.27;;;8.33;;
12871;SDS011;6504;53.766;9.626;2023-04-29T10:21:04;9.07;;;8.17;;
12871;SDS011;6504;53.766;9.626;2023-04-29T10:23:36;8.67;;;7.73;;
12871;SDS011;6504;53.766;9.626;2023-04-29T10:26:04;8.87;;;7.77;;
12871;SDS011;6504;53.766;9.626;2023-04-29T10:28:33;10.80;;;8.03;;
12871;SDS011;6504;53.766;9.626;2023-04-29T10:31:05;7.97;;;7.17;;
12871;SDS011;6504;53.766;9.626;2023-04-29T10:33:34;9.70;;;6.90;;
12871;SDS011;6504;53.766;9.626;2023-04-29T10:36:03;7.73;;;6.73;;
12871;SDS011;6504;53.766;9.626;2023-04-29T10:38:32;8.40;;;6.33;;
12871;SDS011;6504;53.766;9.626;2023-04-29T10:41:07;7.80;;;7.10;;
12871;SDS011;6504;53.766;9.626;2023-04-29T10:43:40;8.20;;;7.10;;
12871;SDS011;6504;53.766;9.626;2023-04-29T10:46:18;8.63;;;7.23;;
12871;SDS011;6504;53.766;9.626;2023-04-29T10:48:47;9.10;;;7.20;;
12871;SDS011;6504;53.766;9.626;2023-04-29T10:51:27;9.37;;;8.03;;
12871;SDS011;6504;53.766;9.626;2023-04-29T10:54:07;8.90;;;8.10;;
12871;SDS011;6504;53.766;9.626;2023-04-29T10:56:36;8.53;;;7.73;;
12871;SDS011;6504;53.766;9.626;2023-04-29T10:59:10;9.27;;;8.33;;
12871;SDS011;6504;53.766;9.626;2023-04-29T11:01:40;8.23;;;7.40;;
12871;SDS011;6504;53.766;9.626;2023-04-29T11:04:09;6.57;;;5.97;;
12871;SDS011;6504;53.766;9.626;2023-04-29T11:06:39;7.53;;;6.60;;
12871;SDS011;6504;53.766;9.626;2023-04-29T11:09:11;7.83;;;6.47;;
12871;SDS011;6504;53.766;9.626;2023-04-29T11:11:44;7.83;;;6.47;;
12871;SDS011;6504;53.766;9.626;2023-04-29T11:14:14;7.27;;;6.07;;
12871;SDS011;6504;53.766;9.626;2023-04-29T11:16:50;7.83;;;5.83;;
12871;SDS011;6504;53.766;9.626;2023-04-29T11:19:20;8.77;;;6.00;;
12871;SDS011;6504;53.766;9.626;2023-04-29T11:22:02;7.63;;;5.23;;
12871;SDS011;6504;53.766;9.626;2023-04-29T11:24:36;5.73;;;4.40;;
12871;SDS011;6504;53.766;9.626;2023-04-29T11:27:20;4.80;;;4.00;;
12871;SDS011;6504;53.766;9.626;2023-04-29T11:29:51;6.33;;;4.30;;
12871;SDS011;6504;53.766;9.626;2023-04-29T11:32:24;4.63;;;3.67;;
12871;SDS011;6504;53.766;9.626;2023-04-29T11:34:52;5.30;;;4.13;;
12871;SDS011;6504;53.766;9.626;2023-04-29T11:37:22;4.40;;;4.00;;
12871;SDS011;6504;53.766;9.626;2023-04-29T11:39:56;4.17;;;3.77;;
12871;SDS011;6504;53.766;9.626;2023-04-29T11:42:26;4.07;;;3.63;;
12871;SDS011;6504;53.766;9.626;2023-04-29T11:44:54;4.63;;;3.90;;
12871;SDS011;6504;53.766;9.626;2023-04-29T11:47:25;6.37;;;4.93;;
12871;SDS011;6504;53.766;9.626;2023-04-29T11:50:00;6.23;;;4.80;;
12871;SDS011;6504;53.766;9.626;2023-04-29T11:52:30;7.10;;;4.97;;
12871;SDS011;6504;53.766;9.626;2023-04-29T11:55:00;5.93;;;4.93;;
12871;SDS011;6504;53.766;9.626;2023-04-29T11:57:28;5.63;;;5.03;;
12871;SDS011;6504;53.766;9.626;2023-04-29T11:59:56;7.03;;;5.37;;
12871;SDS011;6504;53.766;9.626;2023-04-29T12:02:27;28.60;;;10.23;;
12871;SDS011;6504;53.766;9.626;2023-04-29T12:04:57;8.13;;;6.03;;
12871;SDS011;6504;53.766;9.626;2023-04-29T12:07:27;6.47;;;5.53;;
12871;SDS011;6504;53.766;9.626;2023-04-29T12:09:55;5.97;;;5.37;;
12871;SDS011;6504;53.766;9.626;2023-04-29T12:12:24;7.40;;;6.70;;
12871;SDS011;6504;53.766;9.626;2023-04-29T12:14:54;5.90;;;5.40;;
12871;SDS011;6504;53.766;9.626;2023-04-29T12:17:22;7.10;;;5.93;;
12871;SDS011;6504;53.766;9.626;2023-04-29T12:19:51;6.20;;;5.60;;
12871;SDS011;6504;53.766;9.626;2023-04-29T12:22:19;6.57;;;5.37;;
12871;SDS011;6504;53.766;9.626;2023-04-29T12:24:47;5.13;;;4.63;;
12871;SDS011;6504;53.766;9.626;2023-04-29T12:27:19;5.27;;;4.53;;
12871;SDS011;6504;53.766;9.626;2023-04-29T12:29:50;4.80;;;4.40;;
12871;SDS011;6504;53.766;9.626;2023-04-29T12:32:21;4.57;;;3.97;;
12871;SDS011;6504;53.766;9.626;2023-04-29T12:34:50;6.00;;;3.90;;
12871;SDS011;6504;53.766;9.626;2023-04-29T12:37:20;6.87;;;3.37;;
12871;SDS011;6504;53.766;9.626;2023-04-29T12:39:49;4.90;;;2.70;;
12871;SDS011;6504;53.766;9.626;2023-04-29T12:42:18;2.87;;;2.23;;
12871;SDS011;6504;53.766;9.626;2023-04-29T12:44:46;4.07;;;2.07;;
12871;SDS011;6504;53.766;9.626;2023-04-29T12:47:16;4.03;;;2.43;;
12871;SDS011;6504;53.766;9.626;2023-04-29T12:49:44;3.93;;;2.53;;
12871;SDS011;6504;53.766;9.626;2023-04-29T12:52:14;3.23;;;2.20;;
12871;SDS011;6504;53.766;9.626;2023-04-29T12:54:42;4.43;;;2.50;;
12871;SDS011;6504;53.766;9.626;2023-04-29T12:57:10;2.53;;;2.00;;
12871;SDS011;6504;53.766;9.626;2023-04-29T12:59:39;4.43;;;2.47;;
12871;SDS011;6504;53.766;9.626;2023-04-29T13:02:07;5.07;;;2.83;;
12871;SDS011;6504;53.766;9.626;2023-04-29T13:04:37;5.67;;;3.57;;
12871;SDS011;6504;53.766;9.626;2023-04-29T13:07:05;3.30;;;2.90;;
12871;SDS011;6504;53.766;9.626;2023-04-29T13:09:33;3.97;;;3.00;;
12871;SDS011;6504;53.766;9.626;2023-04-29T13:12:03;2.53;;;2.33;;
12871;SDS011;6504;53.766;9.626;2023-04-29T13:14:34;4.00;;;2.60;;
12871;SDS011;6504;53.766;9.626;2023-04-29T13:17:02;3.10;;;2.73;;
12871;SDS011;6504;53.766;9.626;2023-04-29T13:19:31;4.73;;;2.70;;
12871;SDS011;6504;53.766;9.626;2023-04-29T13:22:18;2.90;;;2.63;;
12871;SDS011;6504;53.766;9.626;2023-04-29T13:24:47;5.53;;;2.43;;
12871;SDS011;6504;53.766;9.626;2023-04-29T13:27:15;4.80;;;2.90;;
12871;SDS011;6504;53.766;9.626;2023-04-29T13:29:43;3.67;;;3.00;;
12871;SDS011;6504;53.766;9.626;2023-04-29T13:32:11;2.93;;;2.73;;
12871;SDS011;6504;53.766;9.626;2023-04-29T13:34:39;3.07;;;2.57;;
12871;SDS011;6504;53.766;9.626;2023-04-29T13:37:08;3.57;;;3.03;;
12871;SDS011;6504;53.766;9.626;2023-04-29T13:39:38;4.03;;;2.70;;
12871;SDS011;6504;53.766;9.626;2023-04-29T13:42:11;4.20;;;2.60;;
12871;SDS011;6504;53.766;9.626;2023-04-29T13:44:41;3.23;;;2.37;;
12871;SDS011;6504;53.766;9.626;2023-04-29T13:47:18;4.60;;;2.77;;
12871;SDS011;6504;53.766;9.626;2023-04-29T13:49:54;3.17;;;2.70;;
12871;SDS011;6504;53.766;9.626;2023-04-29T13:52:25;4.67;;;2.93;;
12871;SDS011;6504;53.766;9.626;2023-04-29T13:54:59;3.23;;;2.87;;
12871;SDS011;6504;53.766;9.626;2023-04-29T13:57:47;3.20;;;2.90;;
12871;SDS011;6504;53.766;9.626;2023-04-29T14:00:35;4.43;;;2.50;;
12871;SDS011;6504;53.766;9.626;2023-04-29T14:03:24;2.40;;;2.10;;
12871;SDS011;6504;53.766;9.626;2023-04-29T14:05:52;4.47;;;2.00;;
12871;SDS011;6504;53.766;9.626;2023-04-29T14:08:20;3.83;;;1.93;;
12871;SDS011;6504;53.766;9.626;2023-04-29T14:10:50;4.50;;;1.97;;
12871;SDS011;6504;53.766;9.626;2023-04-29T14:13:18;3.97;;;2.70;;
12871;SDS011;6504;53.766;9.626;2023-04-29T14:15:46;3.20;;;2.20;;
12871;SDS011;6504;53.766;9.626;2023-04-29T14:18:15;4.07;;;2.43;;
12871;SDS011;6504;53.766;9.626;2023-04-29T14:20:43;4.00;;;2.33;;
12871;SDS011;6504;53.766;9.626;2023-04-29T14:23:11;3.03;;;2.10;;
12871;SDS011;6504;53.766;9.626;2023-04-29T14:25:39;3.47;;;2.20;;
12871;SDS011;6504;53.766;9.626;2023-04-29T14:28:08;2.50;;;2.10;;
12871;SDS011;6504;53.766;9.626;2023-04-29T14:30:36;4.73;;;2.40;;
12871;SDS011;6504;53.766;9.626;2023-04-29T14:33:04;4.60;;;2.57;;
12871;SDS011;6504;53.766;9.626;2023-04-29T14:35:33;3.30;;;2.37;;
12871;SDS011;6504;53.766;9.626;2023-04-29T14:38:01;4.43;;;2.50;;
12871;SDS011;6504;53.766;9.626;2023-04-29T14:40:29;3.07;;;2.47;;
12871;SDS011;6504;53.766;9.626;2023-04-29T14:42:57;4.10;;;2.83;;
12871;SDS011;6504;53.766;9.626;2023-04-29T14:45:28;5.17;;;2.97;;
12871;SDS011;6504;53.766;9.626;2023-04-29T14:47:57;3.00;;;2.73;;
12871;SDS011;6504;53.766;9.626;2023-04-29T14:50:25;4.40;;;2.37;;
12871;SDS011;6504;53.766;9.626;2023-04-29T14:52:53;4.77;;;2.93;;
12871;SDS011;6504;53.766;9.626;2023-04-29T14:55:23;5.50;;;3.30;;
12871;SDS011;6504;53.766;9.626;2023-04-29T14:57:51;6.27;;;2.77;;
12871;SDS011;6504;53.766;9.626;2023-04-29T15:00:19;3.70;;;2.23;;
12871;SDS011;6504;53.766;9.626;2023-04-29T15:02:48;3.43;;;2.40;;